createdAt,value
2022-08-20T00:00:00.265Z,20.08
2022-08-20T00:01:04.540Z,20.06
2022-08-20T00:02:07.625Z,20.10
2022-08-20T00:03:17.530Z,20.07
2022-08-20T00:04:20.522Z,20.14
2022-08-20T00:05:27.054Z,20.15
2022-08-20T00:06:30.115Z,20.03
2022-08-20T00:07:33.047Z,20.04
2022-08-20T00:08:37.685Z,20.04
2022-08-20T00:09:41.854Z,19.95
2022-08-20T00:10:49.048Z,19.97
2022-08-20T00:11:56.749Z,19.98
2022-08-20T00:12:59.700Z,20.08
2022-08-20T00:14:05.934Z,20.14
2022-08-20T00:15:09.107Z,20.21
2022-08-20T00:16:13.564Z,20.14
2022-08-20T00:17:16.744Z,20.08
2022-08-20T00:18:21.170Z,20.09
2022-08-20T00:19:24.148Z,19.97
2022-08-20T00:20:35.068Z,19.92
2022-08-20T00:21:38.266Z,19.90
2022-08-20T00:22:41.407Z,19.86
2022-08-20T00:23:46.860Z,19.83
2022-08-20T00:24:49.741Z,19.77
2022-08-20T00:25:53.584Z,19.84
2022-08-20T00:26:56.502Z,19.78
2022-08-20T00:28:00.236Z,19.84
2022-08-20T00:29:03.147Z,19.75
2022-08-20T00:30:09.630Z,19.79
2022-08-20T00:31:18.059Z,19.77
2022-08-20T00:32:21.059Z,19.75
2022-08-20T00:33:25.237Z,19.85
2022-08-20T00:34:28.338Z,19.91
2022-08-20T00:35:35.200Z,19.80
2022-08-20T00:36:38.199Z,19.61
2022-08-20T00:37:41.211Z,19.62
2022-08-20T00:38:46.304Z,19.70
2022-08-20T00:39:49.308Z,19.71
2022-08-20T00:40:58.236Z,19.84
2022-08-20T00:42:03.925Z,19.55
2022-08-20T00:43:24.034Z,19.59
2022-08-20T00:44:27.196Z,19.72
2022-08-20T00:45:33.172Z,19.86
2022-08-20T00:46:37.588Z,19.84
2022-08-20T00:47:44.063Z,19.75
2022-08-20T00:48:57.567Z,19.77
2022-08-20T00:50:04.016Z,19.92
2022-08-20T00:51:41.650Z,19.93
2022-08-20T00:52:50.175Z,19.88
2022-08-20T00:53:56.950Z,19.84
2022-08-20T00:55:02.559Z,19.88
2022-08-20T00:56:08.722Z,19.87
2022-08-20T00:57:59.058Z,19.93
2022-08-20T00:58:55.404Z,19.94
2022-08-20T00:59:59.902Z,19.93
2022-08-20T01:01:03.095Z,19.90
2022-08-20T01:02:09.966Z,19.91
2022-08-20T01:03:16.879Z,19.95
2022-08-20T01:04:20.349Z,19.97
2022-08-20T01:05:27.847Z,19.87
2022-08-20T01:06:32.960Z,19.87
2022-08-20T01:07:37.451Z,19.87
2022-08-20T01:08:41.447Z,19.95
2022-08-20T01:09:58.331Z,19.93
2022-08-20T01:11:18.644Z,19.94
2022-08-20T01:12:24.104Z,19.80
2022-08-20T01:13:27.985Z,19.66
2022-08-20T01:14:36.709Z,19.52
2022-08-20T01:15:43.322Z,19.75
2022-08-20T01:16:49.444Z,19.57
2022-08-20T01:17:58.334Z,19.30
2022-08-20T01:19:02.924Z,19.14
2022-08-20T01:20:12.300Z,19.18
2022-08-20T01:21:19.468Z,19.37
2022-08-20T01:22:54.641Z,19.44
2022-08-20T01:24:16.858Z,19.50
2022-08-20T01:25:50.764Z,19.42
2022-08-20T01:26:55.309Z,19.41
2022-08-20T01:28:02.114Z,19.40
2022-08-20T01:29:18.528Z,19.45
2022-08-20T01:30:22.028Z,19.36
2022-08-20T01:31:28.244Z,19.55
2022-08-20T01:32:31.149Z,19.61
2022-08-20T01:33:34.152Z,19.50
2022-08-20T01:34:37.083Z,19.54
2022-08-20T01:35:42.824Z,19.48
2022-08-20T01:36:51.189Z,19.40
2022-08-20T01:37:56.374Z,19.23
2022-08-20T01:39:00.083Z,19.25
2022-08-20T01:40:09.361Z,19.07
2022-08-20T01:41:41.260Z,19.06
2022-08-20T01:42:54.016Z,19.18
2022-08-20T01:44:02.804Z,19.13
2022-08-20T01:45:07.954Z,19.24
2022-08-20T01:46:11.919Z,19.19
2022-08-20T01:47:29.710Z,19.17
2022-08-20T01:48:32.721Z,19.24
2022-08-20T01:49:35.967Z,19.07
2022-08-20T01:50:42.162Z,19.10
2022-08-20T01:51:49.060Z,19.23
2022-08-20T01:53:21.633Z,19.25
2022-08-20T01:54:25.776Z,19.28
2022-08-20T01:55:29.387Z,19.35
2022-08-20T01:56:34.110Z,19.32
2022-08-20T01:57:38.031Z,19.40
2022-08-20T01:58:45.917Z,19.36
2022-08-20T01:59:50.996Z,19.20
2022-08-20T02:00:53.883Z,19.15
2022-08-20T02:01:58.605Z,19.30
2022-08-20T02:03:03.681Z,19.37
2022-08-20T02:04:09.987Z,19.40
2022-08-20T02:05:19.572Z,19.42
2022-08-20T02:06:26.319Z,19.44
2022-08-20T02:07:30.361Z,19.43
2022-08-20T02:08:33.974Z,19.42
2022-08-20T02:09:39.621Z,19.44
2022-08-20T02:10:42.734Z,19.42
2022-08-20T02:11:46.941Z,19.41
2022-08-20T02:12:50.258Z,19.49
2022-08-20T02:13:56.717Z,19.45
2022-08-20T02:15:00.402Z,19.39
2022-08-20T02:16:03.874Z,19.54
2022-08-20T02:17:07.331Z,19.53
2022-08-20T02:18:15.666Z,19.47
2022-08-20T02:19:41.896Z,19.55
2022-08-20T02:20:46.267Z,19.53
2022-08-20T02:21:57.255Z,19.51
2022-08-20T02:23:01.070Z,19.49
2022-08-20T02:24:05.225Z,19.46
2022-08-20T02:25:11.935Z,19.53
2022-08-20T02:26:17.864Z,19.47
2022-08-20T02:27:24.154Z,19.38
2022-08-20T02:28:28.235Z,19.44
2022-08-20T02:29:31.210Z,19.47
2022-08-20T02:30:39.747Z,19.51
2022-08-20T02:32:24.573Z,19.50
2022-08-20T02:33:13.572Z,19.52
2022-08-20T02:34:21.634Z,19.52
2022-08-20T02:35:26.502Z,19.49
2022-08-20T02:36:30.599Z,19.36
2022-08-20T02:37:33.555Z,19.30
2022-08-20T02:38:39.418Z,19.34
2022-08-20T02:39:42.810Z,19.33
2022-08-20T02:40:47.039Z,19.39
2022-08-20T02:41:50.566Z,19.43
2022-08-20T02:42:54.867Z,19.39
2022-08-20T02:43:57.781Z,19.35
2022-08-20T02:45:00.855Z,19.35
2022-08-20T02:46:05.404Z,19.37
2022-08-20T02:47:08.509Z,19.42
2022-08-20T02:48:21.601Z,19.44
2022-08-20T02:49:24.828Z,19.36
2022-08-20T02:50:28.275Z,19.32
2022-08-20T02:51:31.510Z,19.37
2022-08-20T02:52:34.458Z,19.41
2022-08-20T02:53:41.490Z,19.23
2022-08-20T02:54:44.879Z,19.22
2022-08-20T02:55:47.954Z,19.23
2022-08-20T02:56:52.404Z,19.32
2022-08-20T02:58:00.331Z,19.24
2022-08-20T02:59:04.141Z,19.30
2022-08-20T03:00:15.944Z,19.30
2022-08-20T03:01:19.172Z,19.28
2022-08-20T03:02:22.184Z,19.27
2022-08-20T03:03:25.958Z,19.24
2022-08-20T03:04:30.597Z,19.27
2022-08-20T03:05:33.595Z,19.30
2022-08-20T03:06:36.549Z,19.45
2022-08-20T03:07:48.575Z,19.37
2022-08-20T03:08:51.736Z,19.25
2022-08-20T03:09:54.952Z,19.28
2022-08-20T03:10:58.285Z,19.31
2022-08-20T03:12:01.133Z,19.27
2022-08-20T03:13:05.432Z,19.25
2022-08-20T03:14:08.321Z,19.31
2022-08-20T03:15:17.363Z,19.33
2022-08-20T03:16:21.180Z,19.40
2022-08-20T03:17:24.223Z,19.33
2022-08-20T03:18:35.323Z,19.24
2022-08-20T03:19:38.556Z,19.51
2022-08-20T03:20:42.384Z,19.49
2022-08-20T03:21:50.015Z,19.37
2022-08-20T03:22:53.563Z,19.16
2022-08-20T03:23:56.664Z,19.26
2022-08-20T03:24:59.579Z,19.17
2022-08-20T03:26:05.975Z,19.05
2022-08-20T03:27:09.471Z,18.99
2022-08-20T03:28:15.981Z,18.96
2022-08-20T03:29:18.934Z,19.00
2022-08-20T03:30:26.092Z,19.18
2022-08-20T03:31:29.921Z,19.15
2022-08-20T03:32:33.074Z,19.27
2022-08-20T03:33:36.453Z,19.26
2022-08-20T03:34:46.236Z,19.21
2022-08-20T03:35:49.162Z,19.06
2022-08-20T03:36:52.121Z,19.10
2022-08-20T03:37:55.911Z,19.16
2022-08-20T03:39:04.444Z,19.25
2022-08-20T03:40:12.752Z,19.23
2022-08-20T03:41:15.893Z,19.22
2022-08-20T03:42:19.780Z,19.20
2022-08-20T03:43:22.997Z,19.09
2022-08-20T03:44:26.975Z,19.24
2022-08-20T03:45:30.338Z,19.22
2022-08-20T03:46:34.157Z,19.23
2022-08-20T03:47:37.122Z,19.17
2022-08-20T03:48:40.137Z,19.23
2022-08-20T03:49:43.589Z,19.21
2022-08-20T03:50:49.002Z,19.24
2022-08-20T03:51:57.368Z,19.18
2022-08-20T03:53:01.898Z,19.18
2022-08-20T03:54:05.006Z,19.23
2022-08-20T03:55:10.017Z,19.18
2022-08-20T03:56:13.216Z,19.20
2022-08-20T03:57:16.979Z,19.23
2022-08-20T03:58:19.977Z,19.27
2022-08-20T03:59:22.872Z,19.29
2022-08-20T04:00:31.565Z,19.40
2022-08-20T04:01:44.228Z,19.43
2022-08-20T04:02:49.825Z,19.42
2022-08-20T04:03:55.192Z,19.43
2022-08-20T04:04:58.284Z,19.47
2022-08-20T04:06:01.566Z,19.44
2022-08-20T04:07:17.772Z,19.40
2022-08-20T04:08:27.645Z,19.39
2022-08-20T04:09:30.541Z,19.51
2022-08-20T04:10:33.594Z,19.42
2022-08-20T04:11:37.605Z,19.36
2022-08-20T04:12:42.046Z,19.40
2022-08-20T04:13:59.146Z,19.38
2022-08-20T04:15:05.513Z,19.43
2022-08-20T04:16:13.348Z,19.32
2022-08-20T04:17:19.300Z,19.40
2022-08-20T04:18:24.595Z,19.38
2022-08-20T04:19:31.212Z,19.47
2022-08-20T04:20:38.827Z,19.42
2022-08-20T04:21:41.836Z,19.41
2022-08-20T04:22:58.351Z,19.36
2022-08-20T04:24:04.700Z,19.33
2022-08-20T04:25:10.857Z,19.39
2022-08-20T04:26:20.278Z,19.43
2022-08-20T04:27:23.144Z,19.53
2022-08-20T04:28:30.446Z,19.54
2022-08-20T04:29:35.523Z,19.46
2022-08-20T04:30:38.757Z,19.35
2022-08-20T04:31:46.464Z,19.29
2022-08-20T04:32:50.276Z,19.36
2022-08-20T04:33:53.961Z,19.54
2022-08-20T04:34:57.661Z,19.63
2022-08-20T04:36:02.932Z,19.69
2022-08-20T04:37:06.541Z,19.61
2022-08-20T04:38:22.720Z,19.58
2022-08-20T04:39:25.860Z,19.58
2022-08-20T04:40:48.269Z,19.52
2022-08-20T04:41:57.095Z,19.40
2022-08-20T04:43:05.435Z,19.26
2022-08-20T04:44:09.446Z,19.25
2022-08-20T04:45:12.382Z,19.27
2022-08-20T04:46:15.698Z,19.34
2022-08-20T04:47:25.421Z,19.51
2022-08-20T04:48:39.893Z,19.66
2022-08-20T04:49:43.514Z,19.59
2022-08-20T04:50:49.736Z,19.61
2022-08-20T04:51:54.832Z,19.49
2022-08-20T04:53:00.279Z,19.44
2022-08-20T04:54:04.095Z,19.49
2022-08-20T04:55:07.921Z,19.67
2022-08-20T04:56:11.529Z,19.62
2022-08-20T04:57:14.561Z,19.66
2022-08-20T04:58:38.584Z,19.58
2022-08-20T04:59:41.530Z,19.75
2022-08-20T05:00:50.307Z,19.78
2022-08-20T05:01:53.403Z,19.79
2022-08-20T05:02:56.250Z,19.93
2022-08-20T05:04:00.268Z,19.86
2022-08-20T05:05:03.228Z,19.97
2022-08-20T05:06:08.941Z,20.02
2022-08-20T05:07:13.701Z,19.75
2022-08-20T05:08:20.020Z,19.69
2022-08-20T05:09:23.314Z,19.85
2022-08-20T05:10:26.868Z,20.04
2022-08-20T05:11:33.808Z,20.11
2022-08-20T05:12:42.331Z,20.15
2022-08-20T05:13:59.636Z,20.20
2022-08-20T05:15:02.593Z,20.26
2022-08-20T05:16:05.778Z,20.30
2022-08-20T05:17:09.785Z,20.32
2022-08-20T05:18:13.469Z,20.37
2022-08-20T05:19:17.720Z,20.45
2022-08-20T05:20:21.310Z,20.53
2022-08-20T05:21:24.263Z,20.56
2022-08-20T05:22:31.124Z,20.58
2022-08-20T05:23:36.674Z,20.66
2022-08-20T05:24:39.882Z,20.65
2022-08-20T05:25:45.289Z,20.71
2022-08-20T05:26:48.166Z,20.55
2022-08-20T05:27:57.211Z,20.39
2022-08-20T05:29:00.380Z,20.38
2022-08-20T05:30:08.357Z,20.53
2022-08-20T05:31:15.603Z,20.67
2022-08-20T05:32:18.538Z,20.64
2022-08-20T05:33:23.262Z,20.57
2022-08-20T05:34:26.679Z,20.70
2022-08-20T05:35:30.258Z,20.76
2022-08-20T05:36:33.307Z,20.93
2022-08-20T05:37:38.267Z,20.94
2022-08-20T05:38:41.096Z,21.12
2022-08-20T05:39:52.996Z,21.20
2022-08-20T05:40:56.145Z,21.08
2022-08-20T05:41:59.503Z,21.02
2022-08-20T05:43:04.889Z,21.05
2022-08-20T05:44:15.844Z,21.09
2022-08-20T05:45:18.985Z,21.10
2022-08-20T05:46:23.212Z,21.04
2022-08-20T05:47:28.688Z,21.05
2022-08-20T05:48:35.832Z,21.01
2022-08-20T05:49:38.823Z,20.97
2022-08-20T05:50:43.748Z,21.00
2022-08-20T05:51:47.573Z,21.15
2022-08-20T05:52:51.076Z,21.18
2022-08-20T05:53:54.040Z,21.08
2022-08-20T05:54:57.018Z,20.98
2022-08-20T05:56:02.023Z,21.04
2022-08-20T05:57:05.341Z,21.12
2022-08-20T05:58:17.244Z,21.17
2022-08-20T05:59:24.114Z,21.10
2022-08-20T06:00:29.288Z,21.24
2022-08-20T06:01:34.701Z,21.34
2022-08-20T06:02:56.391Z,21.48
2022-08-20T06:04:18.159Z,21.49
2022-08-20T06:05:21.289Z,21.45
2022-08-20T06:06:46.371Z,21.32
2022-08-20T06:07:49.203Z,21.27
2022-08-20T06:08:52.124Z,21.16
2022-08-20T06:09:55.095Z,21.18
2022-08-20T06:10:58.355Z,21.33
2022-08-20T06:12:04.545Z,21.32
2022-08-20T06:13:07.883Z,21.48
2022-08-20T06:14:11.299Z,21.53
2022-08-20T06:15:14.764Z,21.57
2022-08-20T06:16:17.721Z,21.63
2022-08-20T06:17:22.167Z,21.55
2022-08-20T06:18:27.679Z,21.56
2022-08-20T06:19:32.526Z,21.45
2022-08-20T06:20:38.600Z,21.58
2022-08-20T06:21:41.659Z,21.58
2022-08-20T06:22:45.299Z,21.37
2022-08-20T06:23:57.276Z,21.37
2022-08-20T06:25:04.263Z,21.45
2022-08-20T06:26:09.615Z,21.34
2022-08-20T06:27:15.508Z,21.37
2022-08-20T06:28:18.975Z,21.43
2022-08-20T06:29:21.979Z,21.59
2022-08-20T06:30:25.683Z,21.73
2022-08-20T06:31:29.425Z,21.68
2022-08-20T06:32:33.917Z,21.65
2022-08-20T06:33:40.472Z,21.72
2022-08-20T06:34:50.202Z,21.65
2022-08-20T06:35:53.971Z,21.62
2022-08-20T06:36:58.661Z,21.58
2022-08-20T06:38:02.020Z,21.72
2022-08-20T06:39:05.081Z,21.73
2022-08-20T06:40:12.589Z,21.67
2022-08-20T06:41:15.616Z,21.76
2022-08-20T06:42:20.794Z,21.90
2022-08-20T06:43:23.997Z,21.79
2022-08-20T06:44:28.693Z,21.65
2022-08-20T06:45:33.249Z,21.62
2022-08-20T06:46:37.137Z,21.74
2022-08-20T06:47:42.280Z,21.91
2022-08-20T06:48:45.259Z,21.62
2022-08-20T06:49:49.180Z,21.64
2022-08-20T06:50:53.495Z,21.72
2022-08-20T06:51:56.625Z,21.85
2022-08-20T06:53:00.165Z,21.80
2022-08-20T06:54:04.153Z,21.84
2022-08-20T06:55:09.514Z,21.87
2022-08-20T06:56:12.952Z,21.95
2022-08-20T06:57:17.442Z,21.85
2022-08-20T06:58:37.017Z,21.79
2022-08-20T06:59:44.455Z,21.87
2022-08-20T07:00:57.172Z,21.97
2022-08-20T07:02:00.234Z,22.05
2022-08-20T07:03:04.113Z,21.93
2022-08-20T07:04:08.679Z,21.92
2022-08-20T07:05:12.860Z,21.78
2022-08-20T07:06:16.760Z,21.75
2022-08-20T07:07:22.870Z,21.69
2022-08-20T07:08:25.880Z,21.70
2022-08-20T07:09:29.220Z,21.62
2022-08-20T07:10:32.346Z,21.64
2022-08-20T07:11:35.603Z,21.66
2022-08-20T07:12:38.635Z,21.72
2022-08-20T07:13:42.274Z,21.55
2022-08-20T07:14:45.227Z,21.55
2022-08-20T07:15:52.987Z,21.48
2022-08-20T07:16:57.164Z,21.31
2022-08-20T07:18:04.428Z,21.22
2022-08-20T07:19:08.650Z,21.31
2022-08-20T07:20:18.469Z,21.22
2022-08-20T07:21:21.299Z,21.42
2022-08-20T07:22:26.365Z,21.27
2022-08-20T07:23:31.797Z,21.04
2022-08-20T07:24:37.875Z,21.13
2022-08-20T07:25:44.711Z,21.15
2022-08-20T07:26:47.592Z,21.13
2022-08-20T07:27:51.037Z,21.21
2022-08-20T07:28:54.910Z,21.24
2022-08-20T07:30:16.655Z,21.16
2022-08-20T07:31:42.164Z,21.09
2022-08-20T07:32:46.162Z,21.22
2022-08-20T07:33:50.946Z,21.26
2022-08-20T07:34:59.619Z,21.25
2022-08-20T07:36:04.611Z,21.19
2022-08-20T07:37:11.380Z,21.12
2022-08-20T07:38:24.320Z,21.05
2022-08-20T07:39:28.505Z,21.17
2022-08-20T07:40:35.645Z,21.17
2022-08-20T07:41:39.837Z,21.04
2022-08-20T07:42:46.249Z,21.08
2022-08-20T07:43:49.324Z,20.92
2022-08-20T07:44:52.758Z,20.98
2022-08-20T07:46:01.255Z,20.90
2022-08-20T07:47:06.715Z,20.82
2022-08-20T07:48:30.991Z,20.70
2022-08-20T07:49:39.517Z,20.72
2022-08-20T07:50:43.123Z,20.80
2022-08-20T07:51:45.977Z,20.98
2022-08-20T07:52:49.144Z,21.03
2022-08-20T07:53:52.922Z,20.95
2022-08-20T07:54:55.882Z,20.75
2022-08-20T07:55:59.426Z,20.57
2022-08-20T07:57:03.664Z,20.61
2022-08-20T07:58:10.607Z,20.67
2022-08-20T07:59:14.109Z,20.46
2022-08-20T08:00:19.593Z,20.41
2022-08-20T08:01:26.575Z,20.34
2022-08-20T08:02:29.537Z,20.22
2022-08-20T08:03:39.449Z,20.04
2022-08-20T08:04:52.316Z,19.87
2022-08-20T08:05:56.961Z,20.00
2022-08-20T08:07:00.806Z,19.98
2022-08-20T08:08:07.333Z,19.90
2022-08-20T08:09:16.462Z,19.92
2022-08-20T08:10:23.541Z,19.98
2022-08-20T08:11:30.395Z,19.93
2022-08-20T08:12:40.687Z,19.75
2022-08-20T08:13:44.600Z,19.88
2022-08-20T08:14:51.435Z,19.88
2022-08-20T08:16:02.065Z,19.78
2022-08-20T08:17:07.430Z,19.77
2022-08-20T08:18:22.082Z,19.67
2022-08-20T08:19:28.599Z,19.70
2022-08-20T08:20:31.765Z,19.57
2022-08-20T08:21:37.358Z,19.39
2022-08-20T08:22:43.153Z,19.44
2022-08-20T08:23:46.119Z,19.45
2022-08-20T08:24:57.425Z,19.29
2022-08-20T08:26:07.309Z,19.31
2022-08-20T08:27:19.116Z,19.39
2022-08-20T08:28:22.306Z,19.48
2022-08-20T08:29:25.203Z,19.62
2022-08-20T08:30:31.548Z,19.49
2022-08-20T08:31:35.425Z,19.57
2022-08-20T08:32:59.056Z,19.57
2022-08-20T08:34:02.092Z,19.62
2022-08-20T08:35:07.823Z,19.71
2022-08-20T08:36:16.387Z,19.82
2022-08-20T08:37:19.219Z,19.78
2022-08-20T08:38:23.915Z,19.78
2022-08-20T08:39:26.703Z,19.76
2022-08-20T08:40:38.120Z,19.69
2022-08-20T08:41:50.349Z,19.64
2022-08-20T08:42:58.943Z,19.52
2022-08-20T08:44:22.232Z,19.41
2022-08-20T08:45:34.589Z,19.45
2022-08-20T08:46:44.990Z,19.62
2022-08-20T08:47:48.389Z,19.62
2022-08-20T08:48:55.312Z,19.73
2022-08-20T08:49:59.028Z,19.95
2022-08-20T08:51:12.624Z,19.97
2022-08-20T08:52:22.920Z,19.92
2022-08-20T08:53:30.820Z,19.84
2022-08-20T08:54:35.408Z,19.74
2022-08-20T08:55:38.253Z,19.64
2022-08-20T08:56:41.330Z,19.61
2022-08-20T08:57:44.486Z,19.56
2022-08-20T08:58:47.462Z,19.64
2022-08-20T09:00:03.525Z,19.73
2022-08-20T09:01:53.914Z,19.71
2022-08-20T09:03:08.198Z,19.71
2022-08-20T09:04:11.788Z,19.69
2022-08-20T09:05:19.588Z,19.73
2022-08-20T09:06:26.403Z,19.74
2022-08-20T09:07:34.088Z,19.75
2022-08-20T09:08:45.124Z,19.78
2022-08-20T09:09:48.140Z,19.79
2022-08-20T09:10:51.308Z,19.79
2022-08-20T09:11:58.303Z,19.67
2022-08-20T09:13:02.653Z,19.68
2022-08-20T09:14:05.685Z,19.65
2022-08-20T09:15:09.097Z,19.46
2022-08-20T09:16:13.551Z,19.54
2022-08-20T09:17:18.424Z,19.72
2022-08-20T09:18:25.350Z,19.70
2022-08-20T09:19:28.715Z,19.91
2022-08-20T09:20:31.790Z,19.87
2022-08-20T09:21:34.827Z,19.72
2022-08-20T09:22:37.906Z,19.65
2022-08-20T09:23:41.617Z,19.65
2022-08-20T09:24:45.597Z,19.60
2022-08-20T09:25:48.627Z,19.59
2022-08-20T09:26:51.847Z,19.57
2022-08-20T09:27:58.569Z,19.58
2022-08-20T09:29:02.485Z,19.65
2022-08-20T09:30:05.912Z,19.66
2022-08-20T09:31:09.412Z,19.68
2022-08-20T09:32:24.190Z,19.64
2022-08-20T09:33:27.500Z,19.58
2022-08-20T09:34:30.510Z,19.54
2022-08-20T09:35:34.700Z,19.41
2022-08-20T09:36:38.098Z,19.33
2022-08-20T09:37:41.417Z,19.40
2022-08-20T09:38:44.525Z,19.43
2022-08-20T09:39:48.288Z,19.29
2022-08-20T09:40:51.223Z,19.31
2022-08-20T09:41:54.218Z,19.41
2022-08-20T09:42:57.579Z,19.29
2022-08-20T09:44:00.574Z,19.29
2022-08-20T09:45:04.700Z,19.17
2022-08-20T09:46:14.041Z,19.12
2022-08-20T09:47:17.799Z,19.02
2022-08-20T09:48:20.986Z,19.03
2022-08-20T09:49:33.423Z,19.04
2022-08-20T09:50:37.706Z,19.09
2022-08-20T09:51:40.766Z,19.02
2022-08-20T09:52:48.772Z,18.98
2022-08-20T09:53:55.145Z,18.89
2022-08-20T09:55:17.475Z,18.94
2022-08-20T09:56:20.716Z,18.78
2022-08-20T09:57:24.129Z,18.84
2022-08-20T09:58:38.746Z,18.83
2022-08-20T09:59:42.154Z,18.99
2022-08-20T10:00:45.213Z,19.05
2022-08-20T10:01:48.103Z,19.06
2022-08-20T10:02:51.119Z,18.93
2022-08-20T10:03:53.997Z,18.94
2022-08-20T10:04:57.520Z,18.91
2022-08-20T10:06:00.587Z,18.87
2022-08-20T10:07:08.602Z,18.78
2022-08-20T10:08:13.231Z,19.08
2022-08-20T10:09:16.543Z,19.18
2022-08-20T10:10:19.473Z,19.00
2022-08-20T10:11:22.401Z,19.03
2022-08-20T10:12:25.283Z,19.04
2022-08-20T10:13:28.250Z,19.20
2022-08-20T10:14:31.635Z,19.10
2022-08-20T10:15:34.706Z,19.07
2022-08-20T10:16:37.974Z,19.21
2022-08-20T10:17:43.399Z,19.25
2022-08-20T10:18:48.395Z,19.41
2022-08-20T10:19:51.286Z,19.57
2022-08-20T10:20:54.170Z,19.54
2022-08-20T10:21:58.203Z,19.73
2022-08-20T10:23:01.382Z,19.60
2022-08-20T10:24:04.268Z,19.58
2022-08-20T10:25:08.171Z,19.77
2022-08-20T10:26:13.040Z,20.01
2022-08-20T10:27:16.223Z,20.22
2022-08-20T10:28:19.195Z,20.01
2022-08-20T10:29:22.086Z,20.08
2022-08-20T10:30:25.739Z,20.17
2022-08-20T10:31:29.189Z,20.29
2022-08-20T10:32:32.343Z,20.38
2022-08-20T10:33:35.360Z,20.44
2022-08-20T10:34:40.593Z,20.59
2022-08-20T10:35:43.541Z,20.49
2022-08-20T10:36:47.251Z,20.73
2022-08-20T10:37:50.336Z,20.82
2022-08-20T10:38:53.413Z,21.06
2022-08-20T10:39:58.597Z,21.28
2022-08-20T10:41:01.752Z,21.08
2022-08-20T10:42:04.667Z,21.26
2022-08-20T10:43:07.599Z,21.10
2022-08-20T10:44:10.627Z,21.31
2022-08-20T10:45:16.249Z,21.39
2022-08-20T10:46:19.042Z,21.55
2022-08-20T10:47:28.696Z,21.88
2022-08-20T10:48:32.454Z,21.75
2022-08-20T10:49:41.375Z,21.97
2022-08-20T10:50:44.312Z,21.92
2022-08-20T10:51:47.231Z,21.84
2022-08-20T10:52:50.762Z,21.85
2022-08-20T10:53:54.158Z,21.91
2022-08-20T10:54:57.008Z,22.21
2022-08-20T10:55:59.925Z,21.98
2022-08-20T10:57:07.544Z,22.22
2022-08-20T10:58:11.340Z,22.34
2022-08-20T10:59:14.984Z,22.35
2022-08-20T11:00:25.874Z,22.40
2022-08-20T11:01:32.649Z,22.57
2022-08-20T11:02:37.209Z,22.56
2022-08-20T11:03:43.659Z,22.63
2022-08-20T11:04:46.833Z,22.80
2022-08-20T11:05:50.063Z,22.68
2022-08-20T11:06:53.155Z,22.68
2022-08-20T11:07:56.850Z,22.62
2022-08-20T11:08:59.931Z,22.45
2022-08-20T11:10:03.389Z,22.40
2022-08-20T11:11:07.274Z,22.49
2022-08-20T11:12:10.912Z,22.74
2022-08-20T11:13:13.867Z,22.63
2022-08-20T11:14:16.967Z,22.91
2022-08-20T11:15:19.870Z,23.03
2022-08-20T11:16:22.771Z,23.02
2022-08-20T11:17:30.317Z,23.19
2022-08-20T11:18:34.318Z,23.34
2022-08-20T11:19:44.704Z,23.29
2022-08-20T11:20:47.605Z,23.56
2022-08-20T11:21:50.485Z,23.68
2022-08-20T11:22:54.852Z,23.78
2022-08-20T11:24:01.061Z,23.88
2022-08-20T11:25:06.556Z,24.07
2022-08-20T11:26:09.941Z,24.25
2022-08-20T11:27:22.257Z,24.37
2022-08-20T11:28:31.265Z,24.61
2022-08-20T11:29:36.661Z,24.95
2022-08-20T11:30:39.861Z,25.13
2022-08-20T11:31:43.158Z,25.32
2022-08-20T11:32:46.194Z,25.64
2022-08-20T11:33:49.111Z,25.85
2022-08-20T11:34:52.401Z,25.94
2022-08-20T11:35:55.370Z,26.21
2022-08-20T11:36:59.484Z,26.42
2022-08-20T11:38:03.731Z,26.40
2022-08-20T11:39:07.014Z,26.35
2022-08-20T11:40:12.452Z,26.39
2022-08-20T11:41:15.525Z,26.32
2022-08-20T11:43:26.954Z,25.71
2022-08-20T11:44:29.893Z,25.30
2022-08-20T11:45:32.993Z,25.46
2022-08-20T11:46:40.746Z,25.28
2022-08-20T11:47:43.622Z,24.97
2022-08-20T11:48:46.995Z,25.02
2022-08-20T11:50:23.124Z,24.87
2022-08-20T11:51:26.301Z,24.78
2022-08-20T11:52:29.724Z,24.96
2022-08-20T11:53:32.707Z,24.72
2022-08-20T11:54:40.721Z,24.61
2022-08-20T11:55:44.433Z,24.22
2022-08-20T11:56:47.748Z,24.12
2022-08-20T11:57:50.710Z,24.04
2022-08-20T11:58:53.669Z,23.75
2022-08-20T11:59:58.414Z,23.89
2022-08-20T12:01:01.428Z,23.82
2022-08-20T12:02:06.121Z,23.92
2022-08-20T12:03:12.546Z,23.85
2022-08-20T12:04:15.778Z,23.79
2022-08-20T12:05:19.887Z,23.84
2022-08-20T12:06:22.896Z,23.90
2022-08-20T12:07:26.581Z,24.02
2022-08-20T12:08:29.811Z,24.16
2022-08-20T12:09:32.788Z,23.81
2022-08-20T12:10:36.892Z,23.72
2022-08-20T12:11:39.824Z,24.05
2022-08-20T12:12:51.430Z,23.77
2022-08-20T12:13:54.478Z,23.60
2022-08-20T12:14:58.242Z,23.78
2022-08-20T12:16:02.653Z,23.91
2022-08-20T12:17:18.005Z,23.84
2022-08-20T12:18:21.619Z,23.79
2022-08-20T12:19:29.973Z,23.93
2022-08-20T12:20:32.960Z,24.24
2022-08-20T12:21:35.971Z,24.14
2022-08-20T12:22:39.265Z,24.10
2022-08-20T12:23:42.414Z,23.88
2022-08-20T12:24:46.230Z,23.83
2022-08-20T12:25:49.922Z,24.10
2022-08-20T12:26:52.832Z,23.98
2022-08-20T12:27:56.871Z,24.03
2022-08-20T12:28:59.850Z,24.04
2022-08-20T12:30:07.222Z,23.90
2022-08-20T12:31:10.557Z,23.75
2022-08-20T12:32:14.032Z,23.74
2022-08-20T12:33:17.030Z,23.64
2022-08-20T12:34:20.000Z,23.54
2022-08-20T12:35:23.303Z,23.66
2022-08-20T12:36:26.742Z,23.52
2022-08-20T12:37:31.785Z,23.49
2022-08-20T12:38:34.768Z,23.60
2022-08-20T12:39:48.276Z,23.55
2022-08-20T12:40:52.428Z,23.61
2022-08-20T12:41:55.967Z,23.68
2022-08-20T12:43:02.225Z,23.86
2022-08-20T12:44:07.341Z,23.64
2022-08-20T12:45:17.424Z,23.68
2022-08-20T12:46:20.328Z,23.50
2022-08-20T12:47:26.703Z,23.60
2022-08-20T12:48:29.701Z,23.53
2022-08-20T12:49:33.746Z,23.51
2022-08-20T12:50:39.423Z,23.35
2022-08-20T12:51:42.410Z,23.57
2022-08-20T12:52:46.518Z,23.73
2022-08-20T12:53:49.354Z,23.51
2022-08-20T12:54:52.615Z,23.57
2022-08-20T12:55:55.548Z,23.68
2022-08-20T12:56:58.645Z,23.76
2022-08-20T12:58:03.443Z,23.51
2022-08-20T12:59:10.715Z,23.72
2022-08-20T13:00:16.167Z,23.71
2022-08-20T13:01:19.529Z,23.64
2022-08-20T13:02:22.711Z,23.33
2022-08-20T13:03:25.656Z,23.62
2022-08-20T13:04:29.498Z,23.58
2022-08-20T13:05:34.277Z,23.31
2022-08-20T13:06:37.178Z,23.65
2022-08-20T13:07:41.750Z,23.35
2022-08-20T13:08:45.001Z,23.52
2022-08-20T13:09:47.997Z,23.46
2022-08-20T13:10:51.053Z,23.66
2022-08-20T13:11:54.076Z,23.68
2022-08-20T13:12:57.909Z,23.73
2022-08-20T13:14:00.931Z,23.78
2022-08-20T13:15:05.309Z,23.69
2022-08-20T13:16:08.606Z,23.57
2022-08-20T13:17:11.631Z,23.79
2022-08-20T13:18:14.978Z,23.60
2022-08-20T13:19:17.974Z,23.47
2022-08-20T13:20:21.593Z,23.54
2022-08-20T13:21:24.744Z,23.58
2022-08-20T13:22:27.636Z,23.27
2022-08-20T13:23:30.601Z,23.45
2022-08-20T13:24:34.183Z,23.54
2022-08-20T13:25:37.153Z,23.59
2022-08-20T13:26:40.855Z,23.51
2022-08-20T13:27:45.343Z,23.64
2022-08-20T13:28:48.375Z,23.69
2022-08-20T13:29:58.593Z,23.64
2022-08-20T13:31:02.486Z,23.34
2022-08-20T13:32:06.446Z,23.65
2022-08-20T13:33:09.457Z,23.77
2022-08-20T13:34:12.884Z,23.74
2022-08-20T13:35:16.408Z,23.81
2022-08-20T13:36:19.274Z,23.84
2022-08-20T13:37:27.323Z,23.75
2022-08-20T13:38:30.273Z,23.60
2022-08-20T13:39:33.158Z,23.54
2022-08-20T13:40:39.059Z,23.61
2022-08-20T13:41:42.136Z,23.76
2022-08-20T13:42:45.156Z,23.92
2022-08-20T13:43:48.136Z,23.91
2022-08-20T13:44:51.377Z,23.90
2022-08-20T13:45:54.330Z,24.02
2022-08-20T13:46:57.300Z,24.16
2022-08-20T13:48:00.425Z,24.13
2022-08-20T13:49:03.395Z,24.17
2022-08-20T13:50:10.343Z,24.13
2022-08-20T13:51:13.375Z,24.23
2022-08-20T13:52:22.191Z,24.27
2022-08-20T13:53:27.174Z,24.46
2022-08-20T13:54:30.590Z,24.34
2022-08-20T13:55:34.761Z,24.27
2022-08-20T13:56:41.670Z,24.24
2022-08-20T13:57:46.214Z,24.38
2022-08-20T13:58:49.419Z,24.51
2022-08-20T13:59:58.506Z,24.47
2022-08-20T14:01:01.563Z,24.38
2022-08-20T14:02:07.417Z,24.41
2022-08-20T14:03:12.376Z,24.33
2022-08-20T14:04:16.767Z,24.37
2022-08-20T14:05:19.808Z,24.09
2022-08-20T14:06:22.890Z,24.07
2022-08-20T14:07:32.542Z,23.97